Terminal Aerodrome Forecast
Issued by NWS

Home | Current Version | Previous Version | Text Only | Print | Product List | Glossary On
Versions: 1 2 3 4 5 6 7 8 9 10 11 12
556
FTAK31 PAJN 111738
TAFAWG
TAF
PAWG 111738Z 1118/1218 10008KT P6SM BKN080 OVC120
     FM120000 10006KT P6SM -RA OVC040
     FM120900 11012G18KT 6SM -RA OVC035
     FM121500 11008KT P6SM -RA BKN020 OVC035
      AMD LTD TO CLD VIS AND WIND 1207/1215=

USA.gov is the U.S. government's official web portal to all federal, state and local government web resources and services.